Time;durP1;ratioP1;P1;durP2;ratioP2;P2;SDS_P1;SDS_P2;PMS_P1;PMS_P2;Temp;Humidity;BMP_temperature;BMP_pressure;BME280_temperature;BME280_humidity;BME280_pressure;Samples;Min_cycle;Max_cycle;Signal;HPM_P1;HPM_P2
2023/12/28 00:00:42;;;;;;;6.43;2.83;;;11.10;55.10;;;;;;5053790;28;20251;-81
2023/12/28 00:03:08;;;;;;;4.13;2.70;;;11.10;54.90;;;;;;5053453;28;20654;-82
2023/12/28 00:05:34;;;;;;;4.10;2.70;;;11.10;55.60;;;;;;5054853;28;20185;-83
2023/12/28 00:08:00;;;;;;;4.03;2.50;;;11.20;56.90;;;;;;5053035;28;20213;-82
2023/12/28 00:10:27;;;;;;;3.67;2.40;;;11.10;57.80;;;;;;5054756;28;20178;-82
2023/12/28 00:12:54;;;;;;;4.43;2.53;;;11.10;58.90;;;;;;5052927;28;20186;-82
2023/12/28 00:15:19;;;;;;;6.50;3.20;;;11.10;63.70;;;;;;5053518;28;20209;-82
2023/12/28 00:17:45;;;;;;;7.07;3.10;;;11.10;62.60;;;;;;5054698;28;20177;-82
2023/12/28 00:20:11;;;;;;;5.27;2.73;;;11.20;62.40;;;;;;5054425;28;20614;-82
2023/12/28 00:22:37;;;;;;;3.97;2.70;;;11.20;58.10;;;;;;5053209;28;20224;-82
2023/12/28 00:25:04;;;;;;;4.53;2.90;;;11.20;65.30;;;;;;5053187;28;20193;-82
2023/12/28 00:27:30;;;;;;;5.50;2.80;;;11.20;66.90;;;;;;5052717;28;20678;-82
2023/12/28 00:29:56;;;;;;;4.37;2.47;;;11.20;69.00;;;;;;5053223;28;20215;-82
2023/12/28 00:32:21;;;;;;;4.63;2.60;;;11.20;65.30;;;;;;5052929;28;20224;-82
2023/12/28 00:34:47;;;;;;;6.50;3.23;;;11.20;66.50;;;;;;5053247;28;20569;-82
2023/12/28 00:37:12;;;;;;;3.93;2.50;;;11.30;67.20;;;;;;5052996;28;20638;-87
2023/12/28 00:39:39;;;;;;;5.07;2.40;;;11.40;62.00;;;;;;5052918;28;20642;-83
2023/12/28 00:42:05;;;;;;;5.17;2.33;;;11.40;58.20;;;;;;5052693;28;20191;-83
2023/12/28 00:44:30;;;;;;;5.27;3.23;;;11.40;61.80;;;;;;5054483;28;20172;-82
2023/12/28 00:46:56;;;;;;;6.50;2.87;;;11.30;64.30;;;;;;5052914;28;20202;-86
2023/12/28 00:49:22;;;;;;;5.30;2.97;;;11.30;69.70;;;;;;5052770;28;20662;-82
2023/12/28 00:51:47;;;;;;;3.37;2.70;;;11.30;69.30;;;;;;5052855;28;20217;-83
2023/12/28 00:54:13;;;;;;;5.17;2.63;;;11.30;72.90;;;;;;5052546;28;20261;-82
2023/12/28 00:56:39;;;;;;;5.83;2.67;;;11.30;72.30;;;;;;5052557;28;20181;-81
2023/12/28 00:59:04;;;;;;;5.97;2.70;;;11.30;74.60;;;;;;5052306;28;20272;-83
2023/12/28 01:01:32;;;;;;;6.73;2.90;;;11.30;71.50;;;;;;5052437;28;20571;-83
2023/12/28 01:03:58;;;;;;;6.40;3.13;;;11.30;71.60;;;;;;5051697;28;20272;-90
2023/12/28 01:06:28;;;;;;;4.77;2.87;;;11.30;72.10;;;;;;5052804;28;20662;-83
2023/12/28 01:08:57;;;;;;;4.07;3.00;;;11.30;74.80;;;;;;5052375;28;20234;-82
2023/12/28 01:11:22;;;;;;;3.63;2.50;;;11.30;72.70;;;;;;5052298;28;20172;-84
2023/12/28 01:13:48;;;;;;;6.07;2.67;;;11.30;76.70;;;;;;5053420;28;20186;-84
2023/12/28 01:16:14;;;;;;;4.63;2.67;;;11.30;75.90;;;;;;5052354;28;20176;-83
2023/12/28 01:18:40;;;;;;;3.73;2.70;;;11.20;76.80;;;;;;5052182;28;20200;-83
2023/12/28 01:21:06;;;;;;;4.57;2.60;;;11.20;80.10;;;;;;5052286;28;20270;-82
2023/12/28 01:23:32;;;;;;;6.10;3.00;;;11.20;80.10;;;;;;5052293;28;20675;-83
2023/12/28 01:25:59;;;;;;;6.57;2.63;;;11.20;82.80;;;;;;5051979;28;20197;-83
2023/12/28 01:28:25;;;;;;;4.17;2.50;;;11.20;83.00;;;;;;5052020;28;20305;-82
2023/12/28 01:30:50;;;;;;;5.03;2.73;;;11.10;84.40;;;;;;5052009;28;20183;-82
2023/12/28 01:33:16;;;;;;;4.57;2.67;;;11.10;86.90;;;;;;5051847;28;20177;-83
2023/12/28 01:35:42;;;;;;;4.37;2.63;;;11.10;87.40;;;;;;5051964;28;20185;-83
2023/12/28 01:38:08;;;;;;;4.73;2.40;;;11.10;86.30;;;;;;5052040;28;20179;-86
2023/12/28 01:40:33;;;;;;;3.63;2.37;;;11.20;83.70;;;;;;5051751;28;20175;-83
2023/12/28 01:42:59;;;;;;;4.13;2.60;;;11.20;84.10;;;;;;5051706;28;20536;-82
2023/12/28 01:45:25;;;;;;;5.03;2.90;;;11.10;83.70;;;;;;5052922;28;20182;-85
2023/12/28 01:47:53;;;;;;;5.23;2.63;;;11.20;84.00;;;;;;5051816;28;20214;-84
2023/12/28 01:50:20;;;;;;;5.73;2.60;;;11.20;80.90;;;;;;5051804;28;20236;-83
2023/12/28 01:52:47;;;;;;;5.27;2.60;;;11.20;77.90;;;;;;5051500;28;20182;-82
2023/12/28 01:55:14;;;;;;;5.13;2.80;;;11.20;79.60;;;;;;5051270;28;20209;-84
2023/12/28 01:57:40;;;;;;;5.20;2.57;;;11.20;77.10;;;;;;5051788;28;20174;-82
2023/12/28 02:00:07;;;;;;;5.87;2.77;;;11.20;81.40;;;;;;5051765;28;20186;-87
2023/12/28 02:02:34;;;;;;;6.57;2.53;;;11.20;79.80;;;;;;5051754;28;20175;-83
2023/12/28 02:05:00;;;;;;;5.17;2.47;;;11.20;79.80;;;;;;5051532;28;20186;-83
2023/12/28 02:07:25;;;;;;;4.77;2.50;;;11.20;78.00;;;;;;5051584;28;20314;-83
2023/12/28 02:09:51;;;;;;;4.63;2.20;;;11.20;79.00;;;;;;5052609;28;20317;-82
2023/12/28 02:12:17;;;;;;;4.60;2.37;;;11.20;75.90;;;;;;5051419;28;20263;-82
2023/12/28 02:14:44;;;;;;;6.07;2.70;;;11.20;78.10;;;;;;5053934;28;20866;-84
2023/12/28 02:17:25;;;;;;;5.67;2.30;;;11.20;76.40;;;;;;5056015;28;20173;-82
2023/12/28 02:19:53;;;;;;;5.77;2.57;;;11.30;70.20;;;;;;5055939;28;20172;-82
2023/12/28 02:22:21;;;;;;;4.13;2.70;;;11.20;72.30;;;;;;5056893;28;20545;-82
2023/12/28 02:25:08;;;;;;;6.43;2.00;;;11.20;71.00;;;;;;5057513;28;20281;-82
2023/12/28 02:27:42;;;;;;;5.90;2.47;;;11.30;70.60;;;;;;5056979;28;20201;-82
2023/12/28 02:30:10;;;;;;;5.83;2.20;;;11.40;62.20;;;;;;5055381;28;20180;-83
2023/12/28 02:32:39;;;;;;;5.47;2.50;;;11.40;61.50;;;;;;5055417;28;20186;-81
2023/12/28 02:35:23;;;;;;;4.60;2.60;;;11.30;67.70;;;;;;5055273;28;20633;-82
2023/12/28 02:38:01;;;;;;;4.27;2.40;;;11.30;69.60;;;;;;5055399;28;20175;-83
2023/12/28 02:40:27;;;;;;;5.47;2.23;;;11.40;68.90;;;;;;5055037;28;20173;-90
2023/12/28 02:42:53;;;;;;;5.33;2.33;;;11.40;69.50;;;;;;5055194;28;20258;-82
2023/12/28 02:45:20;;;;;;;5.97;2.30;;;11.50;65.60;;;;;;5054911;28;20674;-83
2023/12/28 02:47:46;;;;;;;6.13;2.43;;;11.50;62.60;;;;;;5055108;28;20250;-81
2023/12/28 02:50:11;;;;;;;6.10;2.67;;;11.50;64.60;;;;;;5055030;28;20208;-82
2023/12/28 02:52:37;;;;;;;4.63;2.10;;;11.50;69.40;;;;;;5054811;28;20194;-82
2023/12/28 02:55:03;;;;;;;5.90;2.43;;;11.50;67.30;;;;;;5054950;28;20174;-82
2023/12/28 02:57:29;;;;;;;6.13;2.43;;;11.40;71.00;;;;;;5054800;28;20630;-83
2023/12/28 02:59:56;;;;;;;5.20;2.40;;;11.40;72.40;;;;;;5067744;28;20186;-81
2023/12/28 03:02:23;;;;;;;5.20;2.27;;;11.50;70.90;;;;;;5074671;28;20189;-82
2023/12/28 03:04:48;;;;;;;5.90;2.70;;;11.50;67.40;;;;;;5074344;28;20173;-82
2023/12/28 03:07:14;;;;;;;5.37;2.33;;;11.40;69.00;;;;;;5074187;28;20205;-81
2023/12/28 03:09:39;;;;;;;6.07;2.47;;;11.40;67.60;;;;;;5074710;28;20662;-82
2023/12/28 03:12:06;;;;;;;6.97;2.60;;;11.50;65.20;;;;;;5074572;28;20270;-83
2023/12/28 03:14:32;;;;;;;6.07;2.30;;;11.50;60.70;;;;;;5074825;28;20272;-83
2023/12/28 03:16:57;;;;;;;4.27;2.10;;;11.40;62.60;;;;;;5074766;28;20295;-83
2023/12/28 03:19:23;;;;;;;7.43;2.10;;;11.40;65.70;;;;;;5074378;28;20669;-82
2023/12/28 03:21:49;;;;;;;5.90;2.40;;;11.40;60.30;;;;;;5073386;28;20166;-83
2023/12/28 03:24:14;;;;;;;7.67;2.57;;;11.40;59.70;;;;;;5074481;28;20181;-83
2023/12/28 03:26:40;;;;;;;6.47;2.77;;;11.50;58.40;;;;;;5073704;28;20221;-80
2023/12/28 03:29:07;;;;;;;7.90;2.50;;;11.40;58.00;;;;;;5075494;28;20684;-81
2023/12/28 03:31:33;;;;;;;8.17;2.30;;;11.40;58.10;;;;;;5075622;28;20172;-82
2023/12/28 03:33:59;;;;;;;6.03;2.00;;;11.40;59.40;;;;;;5074308;28;20214;-81
2023/12/28 03:36:25;;;;;;;7.17;2.27;;;11.50;58.30;;;;;;5073346;28;20177;-81
2023/12/28 03:38:51;;;;;;;6.57;2.50;;;11.50;58.90;;;;;;5074372;28;20180;-82
2023/12/28 03:41:18;;;;;;;7.00;2.50;;;11.50;56.70;;;;;;5074031;28;20236;-81
2023/12/28 03:43:44;;;;;;;6.13;2.93;;;11.60;54.30;;;;;;5074080;28;20219;-82
2023/12/28 03:46:10;;;;;;;6.80;2.10;;;11.50;56.40;;;;;;5075301;28;20454;-81
2023/12/28 03:48:36;;;;;;;6.17;2.53;;;11.40;58.50;;;;;;5073927;28;20790;-81
2023/12/28 03:51:03;;;;;;;9.23;2.33;;;11.40;59.20;;;;;;5073938;28;20174;-82
2023/12/28 03:53:28;;;;;;;5.60;2.03;;;11.30;60.90;;;;;;5073776;28;20181;-82
2023/12/28 03:55:54;;;;;;;8.13;2.70;;;11.40;59.70;;;;;;5073764;28;20819;-82
2023/12/28 03:58:20;;;;;;;5.37;2.50;;;11.40;58.20;;;;;;5074922;28;20165;-83
2023/12/28 04:00:45;;;;;;;6.60;2.00;;;11.40;57.00;;;;;;5073698;28;20169;-81
2023/12/28 04:03:11;;;;;;;5.97;2.20;;;11.50;55.60;;;;;;5073648;28;20209;-82
2023/12/28 04:05:37;;;;;;;6.27;2.00;;;11.50;50.10;;;;;;5073419;28;20174;-81
2023/12/28 04:08:03;;;;;;;8.70;3.07;;;11.50;48.20;;;;;;5073283;28;20673;-82
2023/12/28 04:10:31;;;;;;;5.83;2.50;;;11.60;43.70;;;;;;5073400;28;20172;-82
2023/12/28 04:12:58;;;;;;;6.63;2.60;;;11.50;43.40;;;;;;5073319;28;20205;-81
2023/12/28 04:15:25;;;;;;;10.13;2.33;;;11.50;47.50;;;;;;5073452;28;20175;-82
2023/12/28 04:17:51;;;;;;;5.47;2.00;;;11.40;49.40;;;;;;5072979;28;20172;-81
2023/12/28 04:20:16;;;;;;;9.20;2.90;;;11.40;52.50;;;;;;5073025;28;20182;-82
2023/12/28 04:22:43;;;;;;;6.17;2.50;;;11.40;52.20;;;;;;5073200;28;20175;-83
2023/12/28 04:25:11;;;;;;;7.33;2.23;;;11.50;49.20;;;;;;5074136;28;20193;-81
2023/12/28 04:27:42;;;;;;;4.57;2.00;;;11.50;47.30;;;;;;5072975;28;20209;-81
2023/12/28 04:30:11;;;;;;;6.87;2.20;;;11.50;46.00;;;;;;5073208;28;20256;-82
2023/12/28 04:32:37;;;;;;;8.90;2.10;;;11.50;43.80;;;;;;5072981;28;20183;-81
2023/12/28 04:35:03;;;;;;;9.20;2.60;;;11.50;41.90;;;;;;5072954;28;20172;-82
2023/12/28 04:37:30;;;;;;;8.53;2.40;;;11.50;38.70;;;;;;5071977;28;20181;-82
2023/12/28 04:39:57;;;;;;;9.43;2.30;;;11.60;39.20;;;;;;5072653;28;20182;-82
2023/12/28 04:42:22;;;;;;;8.37;2.30;;;11.60;35.70;;;;;;5072989;28;20584;-82
2023/12/28 04:44:48;;;;;;;6.83;2.10;;;11.60;37.00;;;;;;5073025;28;20176;-82
2023/12/28 04:47:14;;;;;;;8.30;2.23;;;11.60;37.10;;;;;;5073698;28;20293;-82
2023/12/28 04:49:39;;;;;;;8.03;2.33;;;11.50;39.80;;;;;;5072804;28;20235;-82
2023/12/28 04:52:05;;;;;;;6.73;2.30;;;11.40;43.20;;;;;;5074387;28;20169;-81
2023/12/28 04:54:32;;;;;;;8.33;2.60;;;11.40;47.90;;;;;;5072634;28;20226;-81
2023/12/28 04:56:58;;;;;;;8.40;2.60;;;11.30;49.30;;;;;;5071721;28;20170;-82
2023/12/28 04:59:24;;;;;;;6.97;2.20;;;11.40;47.00;;;;;;5072324;28;20541;-82
2023/12/28 05:01:50;;;;;;;7.50;2.40;;;11.40;47.60;;;;;;5072188;28;20179;-82
2023/12/28 05:04:15;;;;;;;6.23;2.43;;;11.40;48.80;;;;;;5072305;28;20651;-82
2023/12/28 05:06:41;;;;;;;7.33;2.70;;;11.40;45.60;;;;;;5072537;28;20233;-82
2023/12/28 05:09:07;;;;;;;8.07;2.67;;;11.30;46.80;;;;;;5071618;28;20212;-82
2023/12/28 05:11:32;;;;;;;8.53;2.23;;;11.30;47.20;;;;;;5072138;28;20176;-81
2023/12/28 05:13:58;;;;;;;7.53;2.70;;;11.20;49.40;;;;;;5072144;28;20191;-82
2023/12/28 05:16:23;;;;;;;7.87;1.97;;;11.20;48.80;;;;;;5072087;28;20702;-81
2023/12/28 05:18:49;;;;;;;9.03;2.50;;;11.20;49.80;;;;;;5072004;28;20173;-82
2023/12/28 05:21:15;;;;;;;7.87;2.30;;;11.20;52.80;;;;;;5073308;28;20625;-80
2023/12/28 05:23:41;;;;;;;9.57;3.00;;;11.20;50.50;;;;;;5072010;28;20536;-81
2023/12/28 05:26:07;;;;;;;8.13;1.80;;;11.20;49.40;;;;;;5072088;28;20193;-82
2023/12/28 05:28:33;;;;;;;7.13;2.53;;;11.30;46.80;;;;;;5071720;28;20211;-82
2023/12/28 05:30:58;;;;;;;10.90;2.97;;;11.40;45.70;;;;;;5071776;28;20182;-82
2023/12/28 05:33:25;;;;;;;13.30;2.87;;;11.30;49.20;;;;;;5071507;28;20203;-82
2023/12/28 05:35:51;;;;;;;8.23;2.27;;;11.30;45.60;;;;;;5072034;28;20175;-82
2023/12/28 05:38:17;;;;;;;5.73;2.27;;;11.30;48.80;;;;;;5071898;28;20264;-81
2023/12/28 05:40:44;;;;;;;11.40;2.67;;;11.30;49.30;;;;;;5071767;28;20217;-81
2023/12/28 05:43:10;;;;;;;12.20;2.67;;;11.20;51.20;;;;;;5071667;28;20185;-82
2023/12/28 05:45:36;;;;;;;8.83;2.47;;;11.20;53.70;;;;;;5071376;28;20193;-84
2023/12/28 05:48:03;;;;;;;8.57;2.60;;;11.20;53.80;;;;;;5073063;28;20680;-82
2023/12/28 05:50:28;;;;;;;8.53;2.33;;;11.30;53.10;;;;;;5071310;28;20179;-82
2023/12/28 05:52:54;;;;;;;12.80;3.27;;;11.30;50.70;;;;;;5072015;28;20510;-82
2023/12/28 05:55:21;;;;;;;8.43;2.23;;;11.30;51.20;;;;;;5072756;28;20243;-82
2023/12/28 05:57:47;;;;;;;8.30;2.80;;;11.30;49.60;;;;;;5071780;28;20181;-82
2023/12/28 06:00:14;;;;;;;12.70;2.50;;;11.30;49.00;;;;;;5071296;28;20171;-82
2023/12/28 06:02:41;;;;;;;8.43;2.17;;;11.30;43.00;;;;;;5071814;28;20179;-83
2023/12/28 06:05:07;;;;;;;9.57;2.60;;;11.40;37.90;;;;;;5071645;28;20334;-83
2023/12/28 06:07:33;;;;;;;12.23;2.87;;;11.40;40.20;;;;;;5071403;28;20299;-83
2023/12/28 06:09:59;;;;;;;13.13;2.40;;;11.40;38.20;;;;;;5071466;28;20173;-83
2023/12/28 06:12:24;;;;;;;7.13;2.57;;;11.40;37.10;;;;;;5072847;28;20200;-80
2023/12/28 06:14:50;;;;;;;12.30;2.80;;;11.40;37.50;;;;;;5071375;28;20711;-82
2023/12/28 06:17:18;;;;;;;12.73;2.57;;;11.30;37.70;;;;;;5071386;28;20181;-84
2023/12/28 06:19:44;;;;;;;7.40;2.67;;;11.30;40.50;;;;;;5072589;28;20198;-82
2023/12/28 06:22:10;;;;;;;8.00;2.70;;;11.20;41.30;;;;;;5071454;28;20583;-82
2023/12/28 06:24:41;;;;;;;8.77;2.20;;;11.20;39.00;;;;;;5071253;28;20653;-83
2023/12/28 06:27:07;;;;;;;6.77;2.20;;;11.20;40.00;;;;;;5071108;28;20168;-81
2023/12/28 06:29:33;;;;;;;11.00;2.70;;;11.20;43.10;;;;;;5070918;28;20234;-84
2023/12/28 06:31:58;;;;;;;12.70;3.23;;;11.10;47.00;;;;;;5071373;28;20196;-82
2023/12/28 06:34:25;;;;;;;11.40;3.10;;;11.10;47.90;;;;;;5071304;28;20630;-81
2023/12/28 06:36:51;;;;;;;10.90;2.27;;;11.10;46.40;;;;;;5072132;28;20614;-83
2023/12/28 06:39:16;;;;;;;9.43;2.73;;;11.10;47.00;;;;;;5071362;28;20229;-81
2023/12/28 06:41:42;;;;;;;12.17;2.63;;;11.10;46.40;;;;;;5071040;28;20178;-80
2023/12/28 06:44:08;;;;;;;9.17;2.60;;;11.10;46.00;;;;;;5071127;28;20173;-82
2023/12/28 06:46:34;;;;;;;11.83;2.50;;;11.00;46.60;;;;;;5071040;28;20530;-82
2023/12/28 06:48:59;;;;;;;13.23;2.67;;;11.00;46.50;;;;;;5072091;28;20318;-82
2023/12/28 06:51:26;;;;;;;9.17;2.90;;;11.00;50.20;;;;;;5070784;28;20571;-82
2023/12/28 06:53:52;;;;;;;7.00;2.40;;;11.00;48.80;;;;;;5071020;28;20230;-82
2023/12/28 06:56:18;;;;;;;8.53;2.50;;;10.90;51.70;;;;;;5070954;28;20202;-82
2023/12/28 06:58:44;;;;;;;9.07;2.63;;;11.00;52.30;;;;;;5072035;28;20514;-85
2023/12/28 07:01:10;;;;;;;8.20;3.10;;;11.00;50.90;;;;;;5072037;28;20280;-83
2023/12/28 07:03:36;;;;;;;9.10;2.63;;;11.00;52.30;;;;;;5074775;28;20182;-82
2023/12/28 07:06:05;;;;;;;13.17;2.70;;;11.00;49.20;;;;;;5074341;28;20530;-82
2023/12/28 07:08:30;;;;;;;10.87;3.07;;;10.90;54.30;;;;;;5074215;28;20221;-83
2023/12/28 07:10:57;;;;;;;10.90;2.30;;;10.90;55.30;;;;;;5074620;28;20285;-83
2023/12/28 07:13:22;;;;;;;10.27;2.90;;;10.90;56.30;;;;;;5075489;28;20181;-82
2023/12/28 07:15:48;;;;;;;14.37;3.30;;;10.90;52.50;;;;;;5073918;28;20176;-86
2023/12/28 07:18:14;;;;;;;9.80;2.73;;;10.90;50.00;;;;;;5073890;28;20183;-86
2023/12/28 07:20:40;;;;;;;16.83;3.00;;;10.90;46.80;;;;;;5074404;28;20618;-86
2023/12/28 07:23:05;;;;;;;8.97;2.80;;;10.90;48.40;;;;;;5074337;28;20230;-82
2023/12/28 07:25:31;;;;;;;10.57;2.77;;;10.80;52.30;;;;;;5074378;28;20544;-82
2023/12/28 07:27:57;;;;;;;7.30;2.23;;;10.80;51.50;;;;;;5075202;28;20200;-82
2023/12/28 07:30:22;;;;;;;12.70;2.60;;;10.80;51.60;;;;;;5074115;28;20671;-86
2023/12/28 07:32:48;;;;;;;14.43;2.97;;;10.90;46.60;;;;;;5073936;28;20228;-85
2023/12/28 07:35:14;;;;;;;11.97;2.20;;;10.90;45.30;;;;;;5074571;28;20204;-84
2023/12/28 07:37:39;;;;;;;12.87;2.77;;;10.80;47.30;;;;;;5074272;28;20663;-82
2023/12/28 07:40:06;;;;;;;10.97;2.57;;;10.80;46.40;;;;;;5075459;28;20637;-82
2023/12/28 07:42:31;;;;;;;9.33;2.40;;;10.90;44.50;;;;;;5073517;28;20184;-86
2023/12/28 07:44:57;;;;;;;11.87;2.93;;;10.90;42.50;;;;;;5074354;28;20297;-84
2023/12/28 07:47:23;;;;;;;11.20;2.73;;;10.90;41.10;;;;;;5073707;28;20632;-84
2023/12/28 07:49:48;;;;;;;16.43;2.70;;;10.90;38.80;;;;;;5073878;28;20647;-83
2023/12/28 07:52:14;;;;;;;14.40;3.00;;;10.90;37.70;;;;;;5073830;28;20226;-82
2023/12/28 07:54:40;;;;;;;11.87;2.63;;;10.90;34.50;;;;;;5074125;28;20632;-82
2023/12/28 07:57:05;;;;;;;13.80;2.60;;;10.90;31.70;;;;;;5073335;28;20550;-83
2023/12/28 07:59:31;;;;;;;7.73;2.53;;;10.90;32.90;;;;;;5073447;28;20662;-83
2023/12/28 08:01:57;;;;;;;14.27;2.80;;;10.80;32.80;;;;;;5073218;28;20176;-83
2023/12/28 08:04:23;;;;;;;9.67;2.50;;;10.90;29.90;;;;;;5073904;28;20172;-83
2023/12/28 08:06:48;;;;;;;12.97;3.17;;;11.00;29.00;;;;;;5075007;28;20687;-82
2023/12/28 08:09:14;;;;;;;14.50;2.97;;;10.90;30.10;;;;;;5073192;28;20244;-84
2023/12/28 08:11:40;;;;;;;12.93;2.70;;;10.90;30.60;;;;;;5080791;28;20176;-84
2023/12/28 08:14:05;;;;;;;9.67;2.60;;;10.90;32.70;;;;;;5074984;28;20650;-82
2023/12/28 08:16:31;;;;;;;11.87;2.80;;;10.90;31.60;;;;;;5076355;28;20531;-86
2023/12/28 08:18:57;;;;;;;11.67;3.10;;;10.90;31.00;;;;;;5075422;28;20271;-83
2023/12/28 08:21:22;;;;;;;13.83;2.97;;;10.90;32.50;;;;;;5074060;28;20624;-82
2023/12/28 08:23:48;;;;;;;8.73;2.33;;;11.00;32.60;;;;;;5076116;28;20172;-84
2023/12/28 08:26:14;;;;;;;12.00;2.40;;;11.10;29.10;;;;;;5077769;28;20194;-82
2023/12/28 08:28:40;;;;;;;11.47;2.60;;;11.10;28.30;;;;;;5075887;28;20198;-82
2023/12/28 08:31:08;;;;;;;18.23;3.67;;;11.00;32.50;;;;;;5076378;28;20172;-84
2023/12/28 08:33:35;;;;;;;11.13;2.87;;;11.10;32.70;;;;;;5072856;28;20178;-81
2023/12/28 08:36:03;;;;;;;13.87;3.27;;;11.20;31.60;;;;;;5073193;28;20281;-82
2023/12/28 08:38:29;;;;;;;9.90;2.77;;;11.20;30.10;;;;;;5073369;28;20176;-83
2023/12/28 08:40:55;;;;;;;13.70;2.73;;;11.20;30.20;;;;;;5072702;28;20517;-83
2023/12/28 08:43:20;;;;;;;12.67;3.20;;;11.20;27.60;;;;;;5072255;28;20494;-83
2023/12/28 08:45:46;;;;;;;11.20;3.03;;;11.20;28.70;;;;;;5072455;28;20227;-85
2023/12/28 08:48:12;;;;;;;11.80;3.13;;;11.20;29.40;;;;;;5073670;28;20297;-83
2023/12/28 08:50:37;;;;;;;10.37;3.50;;;11.30;29.80;;;;;;5072429;28;20611;-83
2023/12/28 08:53:03;;;;;;;12.93;2.63;;;11.30;28.20;;;;;;5072430;28;20219;-84
2023/12/28 08:55:29;;;;;;;13.30;3.30;;;11.30;26.30;;;;;;5072398;28;20636;-83
2023/12/28 08:57:55;;;;;;;12.90;2.80;;;11.30;27.30;;;;;;5072721;28;20302;-83
2023/12/28 09:00:21;;;;;;;14.80;2.80;;;11.30;26.00;;;;;;5072209;28;20535;-83
2023/12/28 09:02:46;;;;;;;11.10;2.90;;;11.30;26.80;;;;;;5072142;28;20628;-82
2023/12/28 09:05:12;;;;;;;10.40;2.90;;;11.30;26.30;;;;;;5072499;28;20170;-84
2023/12/28 09:07:42;;;;;;;13.53;3.17;;;11.40;24.10;;;;;;5072717;28;20236;-84
2023/12/28 09:10:12;;;;;;;14.97;3.00;;;11.40;24.30;;;;;;5072017;28;20206;-85
2023/12/28 09:12:40;;;;;;;11.73;2.90;;;11.40;21.40;;;;;;5071958;28;20204;-84
2023/12/28 09:15:07;;;;;;;10.40;2.70;;;11.40;19.50;;;;;;5073611;28;20229;-83
2023/12/28 09:17:33;;;;;;;11.40;3.00;;;11.40;19.80;;;;;;5071948;28;20176;-83
2023/12/28 09:20:01;;;;;;;11.53;2.40;;;11.40;18.90;;;;;;5071749;28;20181;-83
2023/12/28 09:22:26;;;;;;;12.97;3.60;;;11.50;19.20;;;;;;5072178;28;20181;-82
2023/12/28 09:24:52;;;;;;;14.50;3.43;;;11.50;17.50;;;;;;5071239;28;20564;-83
2023/12/28 09:27:18;;;;;;;10.37;2.90;;;11.40;19.40;;;;;;5071731;28;20257;-82
2023/12/28 09:29:44;;;;;;;14.33;3.07;;;11.40;22.40;;;;;;5071683;28;20306;-83
2023/12/28 09:32:09;;;;;;;13.87;3.13;;;11.40;21.30;;;;;;5068506;28;20206;-85
2023/12/28 09:34:35;;;;;;;12.33;3.27;;;11.50;22.70;;;;;;5060423;28;20185;-83
2023/12/28 09:37:01;;;;;;;10.07;2.90;;;11.40;21.10;;;;;;5051842;28;20643;-83
2023/12/28 09:39:26;;;;;;;12.03;3.00;;;11.60;18.40;;;;;;5051483;28;20182;-85
2023/12/28 09:42:03;;;;;;;9.60;2.93;;;11.60;14.00;;;;;;5053091;28;20182;-84
2023/12/28 09:44:30;;;;;;;9.83;3.13;;;11.60;15.00;;;;;;5051377;28;20170;-83
2023/12/28 09:46:57;;;;;;;11.37;2.80;;;11.50;17.60;;;;;;5051616;28;20192;-83
2023/12/28 09:49:23;;;;;;;15.57;2.83;;;11.60;16.40;;;;;;5051106;28;20305;-83
2023/12/28 09:51:49;;;;;;;15.30;3.73;;;11.50;15.90;;;;;;5050582;28;20300;-83
2023/12/28 09:54:15;;;;;;;11.73;3.00;;;11.60;16.60;;;;;;5053284;28;20620;-83
2023/12/28 09:56:41;;;;;;;15.83;3.33;;;11.60;12.20;;;;;;5052515;28;20314;-85
2023/12/28 09:59:07;;;;;;;14.43;3.13;;;11.70;13.30;;;;;;5052423;28;20668;-84
2023/12/28 10:01:34;;;;;;;7.97;2.87;;;11.70;11.20;;;;;;5051772;28;20694;-83
2023/12/28 10:04:02;;;;;;;11.90;3.70;;;11.70;9.90;;;;;;5051454;28;20601;-84
2023/12/28 10:06:28;;;;;;;12.10;3.03;;;11.70;12.80;;;;;;5051132;28;20921;-86
2023/12/28 10:08:55;;;;;;;16.17;3.50;;;11.80;10.10;;;;;;5051071;28;20717;-83
2023/12/28 10:11:21;;;;;;;11.90;3.03;;;11.80;9.20;;;;;;5051169;28;20179;-83
2023/12/28 10:13:49;;;;;;;12.80;2.63;;;11.70;10.20;;;;;;5051452;28;20199;-87
2023/12/28 10:16:16;;;;;;;16.23;4.37;;;11.70;10.90;;;;;;5051296;28;20192;-84
2023/12/28 10:18:43;;;;;;;14.13;3.00;;;11.70;12.50;;;;;;5051229;28;20177;-85
2023/12/28 10:21:09;;;;;;;10.63;3.07;;;11.70;11.30;;;;;;5053329;28;20171;-83
2023/12/28 10:23:35;;;;;;;12.83;2.97;;;11.70;5.40;;;;;;5051211;28;20183;-83
2023/12/28 10:26:00;;;;;;;12.13;3.13;;;11.80;5.10;;;;;;5050587;28;20342;-84
2023/12/28 10:28:26;;;;;;;12.83;2.90;;;11.80;6.30;;;;;;5051865;28;20254;-85
2023/12/28 10:30:58;;;;;;;11.77;3.90;;;11.90;2.60;;;;;;5051262;28;20172;-83
2023/12/28 10:33:24;;;;;;;13.00;2.93;;;11.90;2.10;;;;;;5051408;28;20264;-84
2023/12/28 10:35:54;;;;;;;10.30;3.33;;;11.90;2.20;;;;;;5051029;28;20687;-84
2023/12/28 10:38:21;;;;;;;14.10;3.20;;;11.90;5.30;;;;;;5055254;28;20205;-81
2023/12/28 10:40:48;;;;;;;10.23;3.57;;;11.90;3.50;;;;;;5054990;28;20183;-83
2023/12/28 10:43:19;;;;;;;11.87;3.77;;;11.90;4.90;;;;;;5055515;28;20177;-84
2023/12/28 10:45:51;;;;;;;12.50;3.53;;;11.90;6.50;;;;;;5056143;28;20192;-85
2023/12/28 10:48:28;;;;;;;12.30;2.90;;;12.00;5.50;;;;;;5054859;28;20231;-85
2023/12/28 10:50:56;;;;;;;10.37;3.10;;;12.00;2.70;;;;;;5054699;28;20185;-83
2023/12/28 10:53:40;;;;;;;12.47;3.43;;;12.10;1.80;;;;;;5054945;28;20232;-83
2023/12/28 10:56:27;;;;;;;13.03;3.20;;;12.00;3.90;;;;;;5054726;28;20270;-85
2023/12/28 10:59:05;;;;;;;14.77;3.50;;;12.00;2.20;;;;;;5054878;28;20175;-83
2023/12/28 11:01:33;;;;;;;10.37;3.00;;;12.10;3.40;;;;;;5056946;28;20157;-84
2023/12/28 11:04:08;;;;;;;14.20;3.47;;;12.10;3.00;;;;;;5055495;28;20278;-84
2023/12/28 11:06:36;;;;;;;14.93;3.27;;;12.20;1.00;;;;;;5056362;28;20179;-84
2023/12/28 11:09:03;;;;;;;12.77;3.50;;;12.20;1.00;;;;;;5055003;28;20292;-85
2023/12/28 11:11:29;;;;;;;15.63;3.23;;;12.20;1.00;;;;;;5054596;28;20233;-83
2023/12/28 11:13:56;;;;;;;16.27;3.70;;;12.20;1.00;;;;;;5054274;28;20649;-84
2023/12/28 11:16:22;;;;;;;13.90;3.37;;;12.20;1.00;;;;;;5054115;28;20178;-84
2023/12/28 11:18:49;;;;;;;11.07;3.13;;;12.20;1.00;;;;;;5053585;28;20171;-86
2023/12/28 11:21:17;;;;;;;10.40;3.50;;;12.20;1.50;;;;;;5054051;28;20643;-83
2023/12/28 11:23:44;;;;;;;15.93;3.60;;;12.20;1.90;;;;;;5054157;28;20210;-84
2023/12/28 11:26:20;;;;;;;16.37;2.77;;;12.20;1.00;;;;;;5054176;28;20195;-85
2023/12/28 11:28:46;;;;;;;11.63;3.40;;;12.20;1.00;;;;;;5054060;28;20373;-83
2023/12/28 11:31:15;;;;;;;13.37;3.27;;;12.20;1.00;;;;;;5054264;28;20180;-83
2023/12/28 11:33:46;;;;;;;14.13;3.80;;;12.20;1.00;;;;;;5053794;28;20177;-84
2023/12/28 11:36:22;;;;;;;11.43;3.13;;;12.20;1.10;;;;;;5054121;28;20205;-83
2023/12/28 11:38:51;;;;;;;11.53;3.37;;;12.20;1.00;;;;;;5053681;28;20178;-85
2023/12/28 11:41:18;;;;;;;16.07;3.40;;;12.30;1.20;;;;;;5053911;28;20230;-83
2023/12/28 11:43:53;;;;;;;13.93;3.47;;;12.30;1.00;;;;;;5053782;28;20276;-83
2023/12/28 11:46:20;;;;;;;16.40;4.47;;;12.30;1.00;;;;;;5053778;28;20169;-83
2023/12/28 11:48:45;;;;;;;11.60;2.77;;;12.30;1.00;;;;;;5053562;28;20208;-83
2023/12/28 11:51:11;;;;;;;14.77;3.63;;;12.40;1.00;;;;;;5054126;28;20171;-84
2023/12/28 11:53:39;;;;;;;16.27;3.20;;;12.40;1.00;;;;;;5054285;28;20267;-84
2023/12/28 11:56:09;;;;;;;13.47;3.20;;;12.40;1.00;;;;;;5054137;28;20169;-84
2023/12/28 11:58:35;;;;;;;10.90;2.97;;;12.40;1.00;;;;;;5053603;28;20177;-84
2023/12/28 12:01:02;;;;;;;15.43;4.13;;;12.40;1.00;;;;;;5053586;28;20182;-84
2023/12/28 12:03:29;;;;;;;9.00;3.07;;;12.40;1.00;;;;;;5053171;28;20255;-84
2023/12/28 12:05:57;;;;;;;12.20;3.07;;;12.40;1.00;;;;;;5054779;28;20199;-83
2023/12/28 12:08:24;;;;;;;11.97;3.23;;;12.40;1.00;;;;;;5053253;28;20245;-83
2023/12/28 12:11:00;;;;;;;15.27;3.83;;;12.40;1.00;;;;;;5053510;28;20222;-84
2023/12/28 12:13:27;;;;;;;12.33;3.07;;;12.40;1.00;;;;;;5053655;28;20237;-86
2023/12/28 12:15:53;;;;;;;11.53;2.80;;;12.50;1.00;;;;;;5053973;28;20210;-86
2023/12/28 12:18:19;;;;;;;16.50;3.60;;;12.50;1.00;;;;;;5053114;28;20612;-84
2023/12/28 12:20:45;;;;;;;12.60;3.57;;;12.50;1.00;;;;;;5053817;28;20210;-84
2023/12/28 12:23:12;;;;;;;11.90;2.90;;;12.60;1.00;;;;;;5053870;28;20237;-84
2023/12/28 12:25:40;;;;;;;18.07;3.83;;;12.50;1.00;;;;;;5053464;28;20196;-87
2023/12/28 12:28:06;;;;;;;12.60;3.47;;;12.60;1.00;;;;;;5052830;28;20812;-85
2023/12/28 12:30:32;;;;;;;15.33;3.40;;;12.50;1.00;;;;;;5053172;28;20172;-85
2023/12/28 12:32:58;;;;;;;10.77;3.37;;;12.50;1.00;;;;;;5052751;28;20658;-85
2023/12/28 12:35:24;;;;;;;12.27;3.47;;;12.50;1.00;;;;;;5053949;28;20533;-86
2023/12/28 12:37:51;;;;;;;12.40;3.50;;;12.40;1.00;;;;;;5052862;28;20201;-83
2023/12/28 12:40:19;;;;;;;11.23;2.93;;;12.40;1.00;;;;;;5052713;28;20260;-84